createdAt,value
2023-08-14T00:02:19.463Z,2.30
2023-08-14T00:07:25.160Z,2.73
2023-08-14T00:12:33.386Z,2.33
2023-08-14T00:17:39.235Z,2.38
2023-08-14T00:22:45.128Z,2.37
2023-08-14T00:27:53.539Z,2.30
2023-08-14T00:32:59.075Z,2.45
2023-08-14T00:38:04.810Z,2.05
2023-08-14T00:43:13.127Z,2.00
2023-08-14T00:48:19.118Z,2.10
2023-08-14T00:53:29.845Z,2.45
2023-08-14T00:58:38.597Z,1.90
2023-08-14T01:03:44.113Z,2.55
2023-08-14T01:08:50.949Z,2.05
2023-08-14T01:14:08.433Z,2.93
2023-08-14T01:19:23.106Z,2.80
2023-08-14T01:24:43.784Z,2.45
2023-08-14T01:29:59.886Z,2.60
2023-08-14T01:35:07.117Z,2.67
2023-08-14T01:40:22.472Z,2.58
2023-08-14T01:45:33.924Z,2.25
2023-08-14T01:50:40.522Z,2.77
2023-08-14T01:55:46.141Z,2.38
2023-08-14T02:00:54.430Z,2.20
2023-08-14T02:06:00.044Z,2.23
2023-08-14T02:11:10.809Z,2.20
2023-08-14T02:16:19.281Z,2.40
2023-08-14T02:21:25.232Z,2.90
2023-08-14T02:26:30.877Z,2.43
2023-08-14T02:31:41.153Z,2.60
2023-08-14T02:36:46.878Z,2.83
2023-08-14T02:41:53.416Z,2.30
2023-08-14T02:47:02.138Z,2.47
2023-08-14T02:52:08.253Z,2.15
2023-08-14T02:57:13.825Z,2.60
2023-08-14T03:02:22.112Z,2.50
2023-08-14T03:07:28.128Z,2.67
2023-08-14T03:12:33.821Z,2.60
2023-08-14T03:17:41.929Z,2.20
2023-08-14T03:22:47.955Z,2.67
2023-08-14T03:27:53.587Z,2.58
2023-08-14T03:33:02.399Z,2.40
2023-08-14T03:38:09.713Z,3.05
2023-08-14T03:43:15.568Z,2.63
2023-08-14T03:48:23.747Z,2.37
2023-08-14T03:53:29.396Z,2.28
2023-08-14T03:58:36.892Z,2.50
2023-08-14T04:03:45.278Z,2.67
2023-08-14T04:08:51.008Z,2.85
2023-08-14T04:13:56.617Z,2.80
2023-08-14T04:19:04.796Z,2.57
2023-08-14T04:24:11.424Z,2.37
2023-08-14T04:29:17.662Z,2.78
2023-08-14T04:34:25.910Z,2.45
2023-08-14T04:39:33.697Z,2.77
2023-08-14T04:44:40.226Z,2.50
2023-08-14T04:49:48.422Z,3.22
2023-08-14T04:54:54.026Z,2.73
2023-08-14T05:00:01.057Z,2.33
2023-08-14T05:05:12.162Z,2.88
2023-08-14T05:10:17.815Z,2.33
2023-08-14T05:15:23.418Z,2.40
2023-08-14T05:20:32.088Z,3.03
2023-08-14T05:25:37.670Z,2.35
2023-08-14T05:30:46.619Z,2.40
2023-08-14T05:35:55.236Z,2.45
2023-08-14T05:41:00.938Z,3.03
2023-08-14T05:46:06.588Z,2.23
2023-08-14T05:51:15.118Z,2.65
2023-08-14T05:56:20.720Z,2.35
2023-08-14T06:01:26.469Z,2.37
2023-08-14T06:06:34.692Z,2.20
2023-08-14T06:11:40.233Z,2.53
2023-08-14T06:16:45.822Z,2.90
2023-08-14T06:21:55.530Z,3.00
2023-08-14T06:27:01.030Z,2.50
2023-08-14T06:32:07.463Z,2.50
2023-08-14T06:37:15.667Z,2.53
2023-08-14T06:42:21.334Z,2.30
2023-08-14T06:47:26.966Z,2.42
2023-08-14T06:52:35.182Z,2.90
2023-08-14T06:57:41.066Z,2.90
2023-08-14T07:02:48.721Z,2.65
2023-08-14T07:07:57.020Z,2.83
2023-08-14T07:13:02.541Z,2.30
2023-08-14T07:18:09.482Z,3.05
2023-08-14T07:23:19.067Z,3.15
2023-08-14T07:28:25.993Z,2.87
2023-08-14T07:33:31.727Z,2.88
2023-08-14T07:38:39.956Z,2.83
2023-08-14T07:43:45.574Z,2.50
2023-08-14T07:48:53.006Z,2.67
2023-08-14T07:54:03.046Z,2.28
2023-08-14T07:59:09.135Z,2.20
2023-08-14T08:04:26.487Z,2.30
2023-08-14T08:09:35.361Z,2.30
2023-08-14T08:14:41.296Z,2.47
2023-08-14T08:19:47.831Z,2.30
2023-08-14T08:24:56.415Z,2.13
2023-08-14T08:30:03.659Z,1.92
2023-08-14T08:35:09.904Z,2.10
2023-08-14T08:40:18.204Z,2.70
2023-08-14T08:45:27.095Z,2.40
2023-08-14T08:50:32.920Z,2.30
2023-08-14T08:55:41.260Z,2.30
2023-08-14T09:00:47.680Z,2.33
2023-08-14T09:05:55.202Z,2.28
2023-08-14T09:11:03.506Z,2.13
2023-08-14T09:32:40.365Z,2.17
2023-08-14T09:37:46.316Z,2.27
2023-08-14T09:42:53.408Z,2.00
2023-08-14T09:48:05.520Z,1.95
2023-08-14T09:53:13.912Z,2.57
2023-08-14T09:58:19.624Z,1.60
2023-08-14T10:03:28.113Z,2.60
2023-08-14T10:08:38.257Z,2.00
2023-08-14T10:13:47.004Z,1.80
2023-08-14T10:18:58.381Z,2.42
2023-08-14T10:24:04.791Z,2.47
2023-08-14T10:29:10.410Z,2.47
2023-08-14T10:34:20.077Z,2.40
2023-08-14T10:39:38.970Z,2.33
2023-08-14T10:44:47.390Z,2.43
2023-08-14T10:49:55.733Z,2.38
2023-08-14T10:55:01.333Z,2.00
2023-08-14T11:00:08.388Z,2.47
2023-08-14T11:05:22.473Z,2.23
2023-08-14T11:10:30.759Z,2.38
2023-08-14T11:15:38.633Z,2.13
2023-08-14T11:20:46.765Z,2.07
2023-08-14T11:25:52.556Z,2.40
2023-08-14T11:30:58.217Z,2.35
2023-08-14T11:36:11.796Z,2.30
2023-08-14T11:41:30.800Z,2.30
2023-08-14T11:46:37.449Z,2.45
2023-08-14T11:51:46.006Z,2.80
2023-08-14T11:56:52.217Z,2.77
2023-08-14T12:02:00.221Z,3.33
2023-08-14T12:07:10.585Z,2.60
2023-08-14T12:12:16.854Z,2.60
2023-08-14T12:17:23.376Z,2.90
2023-08-14T12:22:32.811Z,2.78
2023-08-14T12:27:38.709Z,2.30
2023-08-14T12:32:49.556Z,2.55
2023-08-14T12:37:57.807Z,2.95
2023-08-14T12:43:04.599Z,2.50
2023-08-14T12:48:10.936Z,2.60
2023-08-14T12:53:20.426Z,3.05
2023-08-14T12:58:26.880Z,3.10
2023-08-14T13:03:37.142Z,2.90
2023-08-14T13:08:46.296Z,2.78
2023-08-14T13:13:53.825Z,3.20
2023-08-14T13:18:59.623Z,3.20
2023-08-14T13:24:10.746Z,3.15
2023-08-14T13:29:16.230Z,2.30
2023-08-14T13:34:21.727Z,2.70
2023-08-14T13:39:30.827Z,2.60
2023-08-14T13:44:36.463Z,3.45
2023-08-14T13:49:42.109Z,3.53
2023-08-14T13:54:51.392Z,2.90
2023-08-14T14:00:00.007Z,3.15
2023-08-14T14:05:06.443Z,2.80
2023-08-14T14:10:15.043Z,3.67
2023-08-14T14:15:20.571Z,3.45
2023-08-14T14:20:26.698Z,3.15
2023-08-14T14:25:35.000Z,3.50
2023-08-14T14:30:40.529Z,3.00
2023-08-14T14:35:48.085Z,2.80
2023-08-14T14:40:56.337Z,2.90
2023-08-14T14:46:02.380Z,2.77
2023-08-14T14:51:08.224Z,3.05
2023-08-14T14:56:16.452Z,3.00
2023-08-14T15:01:32.514Z,3.20
2023-08-14T15:06:38.091Z,2.85
2023-08-14T15:11:46.304Z,2.30
2023-08-14T15:16:54.235Z,2.87
2023-08-14T15:21:59.897Z,3.00
2023-08-14T15:27:08.553Z,2.45
2023-08-14T15:32:14.110Z,2.80
2023-08-14T15:37:20.204Z,2.60
2023-08-14T15:42:28.917Z,2.75
2023-08-14T15:47:35.017Z,2.60
2023-08-14T15:52:40.775Z,2.83
2023-08-14T15:57:49.461Z,2.75
2023-08-14T16:02:54.977Z,2.70
2023-08-14T16:08:00.600Z,2.70
2023-08-14T16:13:09.156Z,2.73
2023-08-14T16:18:14.770Z,3.30
2023-08-14T16:23:20.687Z,3.30
2023-08-14T16:28:28.743Z,3.10
2023-08-14T16:33:34.553Z,2.90
2023-08-14T16:38:40.156Z,3.35
2023-08-14T16:43:49.575Z,3.07
2023-08-14T16:48:57.714Z,2.97
2023-08-14T16:54:03.314Z,3.28
2023-08-14T16:59:11.539Z,3.50
2023-08-14T17:04:17.104Z,3.10
2023-08-14T17:09:22.593Z,3.22
2023-08-14T17:14:31.505Z,3.20
2023-08-14T17:19:37.134Z,3.40
2023-08-14T17:24:45.150Z,3.33
2023-08-14T17:29:53.255Z,3.42
2023-08-14T17:34:59.081Z,2.87
2023-08-14T17:40:04.852Z,3.10
2023-08-14T17:45:16.094Z,3.28
2023-08-14T17:50:21.680Z,3.10
2023-08-14T17:55:27.311Z,3.10
2023-08-14T18:00:37.611Z,3.17
2023-08-14T18:05:43.210Z,3.67
2023-08-14T18:10:49.049Z,3.00
2023-08-14T18:16:01.527Z,3.13
2023-08-14T18:21:07.272Z,3.58
2023-08-14T18:26:12.954Z,3.20
2023-08-14T18:31:21.208Z,3.22
2023-08-14T18:36:27.831Z,3.40
2023-08-14T18:41:33.368Z,3.30
2023-08-14T18:46:43.489Z,3.13
2023-08-14T18:51:49.211Z,2.90
2023-08-14T18:56:55.203Z,2.88
2023-08-14T19:02:03.522Z,2.97
2023-08-14T19:07:09.090Z,2.90
2023-08-14T19:12:15.469Z,2.97
2023-08-14T19:17:24.074Z,3.30
2023-08-14T19:22:29.656Z,3.05
2023-08-14T19:27:35.382Z,3.00
2023-08-14T19:32:43.450Z,3.20
2023-08-14T19:37:49.094Z,3.20
2023-08-14T19:42:54.671Z,3.38
2023-08-14T19:48:02.839Z,3.00
2023-08-14T19:53:08.229Z,3.03
2023-08-14T19:58:13.787Z,2.90
2023-08-14T20:03:21.990Z,3.30
2023-08-14T20:08:27.623Z,2.90
2023-08-14T20:13:33.309Z,3.33
2023-08-14T20:18:41.432Z,3.13
2023-08-14T20:23:47.078Z,3.20
2023-08-14T20:28:53.162Z,3.17
2023-08-14T20:34:02.147Z,3.70
2023-08-14T20:39:09.628Z,3.40
2023-08-14T20:44:15.261Z,3.63
2023-08-14T20:49:23.455Z,4.03
2023-08-14T20:54:29.716Z,3.78
2023-08-14T20:59:37.156Z,3.67
2023-08-14T21:04:46.694Z,3.60
2023-08-14T21:09:53.802Z,3.95
2023-08-14T21:15:00.128Z,3.90
2023-08-14T21:20:10.424Z,3.43
2023-08-14T21:25:16.244Z,3.83
2023-08-14T21:30:21.907Z,3.33
2023-08-14T21:35:30.294Z,3.20
2023-08-14T21:40:37.657Z,3.53
2023-08-14T21:45:43.737Z,3.20
2023-08-14T21:50:53.157Z,3.90
2023-08-14T21:55:58.722Z,3.72
2023-08-14T22:01:06.710Z,3.95
2023-08-14T22:06:15.472Z,3.83
2023-08-14T22:11:21.056Z,4.00
2023-08-14T22:16:27.271Z,3.60
2023-08-14T22:21:35.978Z,3.40
2023-08-14T22:26:41.454Z,4.00
2023-08-14T22:31:47.469Z,3.67
2023-08-14T22:36:56.455Z,4.05
2023-08-14T22:42:02.740Z,3.50
2023-08-14T22:47:08.669Z,3.80
2023-08-14T22:52:16.887Z,3.90
2023-08-14T22:57:22.609Z,4.00
2023-08-14T23:02:28.193Z,3.60
2023-08-14T23:07:36.321Z,3.97
2023-08-14T23:12:41.874Z,4.05
2023-08-14T23:17:47.494Z,4.20
2023-08-14T23:22:55.714Z,3.92
2023-08-14T23:28:01.931Z,3.90
2023-08-14T23:33:07.832Z,3.97
2023-08-14T23:38:15.980Z,3.83
2023-08-14T23:43:21.500Z,3.85
2023-08-14T23:48:27.251Z,4.00
2023-08-14T23:53:35.444Z,4.37
2023-08-14T23:58:41.001Z,4.25
